Terminal Aerodrome Forecast
Issued by NWS Cleveland, OH

Home | Current Version | Previous Version | Graphics & Text | Print | Product List | Glossary Off
Versions: 1 2 3 4 5 6 7 8 9 10 11 12 13 14 15 16 17 18 19 20 21 22 23 24 25 26 27 28 29 30 31 32 33

000
FTUS41 KCLE 201700
TAFCLE
TAF
KCLE 201737Z 2018/2124 22015G25KT P6SM VCTS SCT025CB OVC050
      TEMPO 2018/2019 VRB25G38KT 2SM -TSRA BKN015 OVC025CB
     FM201900 22020G32KT P6SM SCT012 OVC025
     FM210200 22012KT P6SM SCT025 OVC035
     FM211300 24015G25KT P6SM SCT025 OVC050=

USA.gov is the U.S. government's official web portal to all federal, state and local government web resources and services.